createdAt,value
2023-09-29T00:00:19.338Z,3.00
2023-09-29T00:02:48.629Z,3.30
2023-09-29T00:05:20.165Z,2.90
2023-09-29T00:07:47.704Z,3.10
2023-09-29T00:10:19.046Z,3.70
2023-09-29T00:12:47.442Z,2.72
2023-09-29T00:15:14.830Z,4.70
2023-09-29T00:17:42.832Z,3.97
2023-09-29T00:20:26.719Z,3.25
2023-09-29T00:22:56.183Z,5.55
2023-09-29T00:25:23.614Z,3.47
2023-09-29T00:27:51.597Z,3.30
2023-09-29T00:30:18.966Z,3.15
2023-09-29T00:32:54.599Z,3.90
2023-09-29T00:35:29.687Z,3.08
2023-09-29T00:38:00.528Z,2.60
2023-09-29T00:40:29.057Z,3.00
2023-09-29T00:42:59.063Z,3.40
2023-09-29T00:45:27.927Z,3.33
2023-09-29T00:47:58.088Z,3.65
2023-09-29T00:50:27.685Z,4.65
2023-09-29T00:52:59.924Z,2.97
2023-09-29T00:55:31.482Z,3.40
2023-09-29T00:58:00.109Z,3.13
2023-09-29T01:00:47.694Z,3.78
2023-09-29T01:03:16.863Z,3.42
2023-09-29T01:05:46.511Z,3.40
2023-09-29T01:08:25.140Z,3.15
2023-09-29T01:10:54.326Z,3.33
2023-09-29T01:13:24.007Z,4.05
2023-09-29T01:15:51.437Z,2.97
2023-09-29T01:18:18.590Z,3.25
2023-09-29T01:20:45.906Z,3.20
2023-09-29T01:23:13.179Z,4.20
2023-09-29T01:25:41.507Z,3.35
2023-09-29T01:28:10.331Z,2.95
2023-09-29T01:30:43.185Z,4.05
2023-09-29T01:33:10.534Z,3.22
2023-09-29T01:35:37.698Z,4.35
2023-09-29T01:38:04.880Z,3.78
2023-09-29T01:40:31.919Z,3.58
2023-09-29T01:43:00.026Z,5.10
2023-09-29T01:45:28.067Z,3.13
2023-09-29T01:47:56.104Z,3.67
2023-09-29T01:50:24.334Z,3.35
2023-09-29T01:52:52.469Z,3.60
2023-09-29T01:55:21.497Z,3.58
2023-09-29T01:57:49.858Z,3.65
2023-09-29T02:00:25.395Z,3.55
2023-09-29T02:02:55.725Z,3.25
2023-09-29T02:05:24.779Z,3.97
2023-09-29T02:07:53.240Z,3.85
2023-09-29T02:10:22.925Z,4.07
2023-09-29T02:12:55.791Z,3.72
2023-09-29T02:15:23.184Z,3.50
2023-09-29T02:17:51.209Z,4.78
2023-09-29T02:20:19.848Z,3.40
2023-09-29T02:22:48.392Z,4.18
2023-09-29T02:25:18.681Z,5.95
2023-09-29T02:27:45.904Z,4.55
2023-09-29T02:30:13.805Z,3.90
2023-09-29T02:32:45.186Z,3.60
2023-09-29T02:35:12.450Z,4.50
2023-09-29T02:37:40.169Z,4.28
2023-09-29T02:40:11.092Z,3.97
2023-09-29T02:42:38.989Z,3.85
2023-09-29T02:45:09.475Z,3.95
2023-09-29T02:47:37.221Z,4.45
2023-09-29T02:50:05.725Z,3.80
2023-09-29T02:52:33.290Z,3.72
2023-09-29T02:55:00.545Z,3.85
2023-09-29T02:57:27.884Z,4.45
2023-09-29T02:59:56.048Z,3.72
2023-09-29T03:02:23.292Z,3.85
2023-09-29T03:04:52.263Z,4.25
2023-09-29T03:07:19.386Z,5.00
2023-09-29T03:09:47.039Z,4.97
2023-09-29T03:12:14.520Z,4.47
2023-09-29T03:14:41.564Z,3.88
2023-09-29T03:17:08.569Z,3.97
2023-09-29T03:19:38.051Z,4.97
2023-09-29T03:22:05.188Z,3.83
2023-09-29T03:24:32.265Z,4.82
2023-09-29T03:26:59.508Z,4.32
2023-09-29T03:29:26.586Z,4.63
2023-09-29T03:31:56.042Z,4.72
2023-09-29T03:34:24.883Z,4.38
2023-09-29T03:36:51.930Z,6.25
2023-09-29T03:39:20.063Z,6.28
2023-09-29T03:41:47.442Z,5.82
2023-09-29T03:44:14.572Z,5.45
2023-09-29T03:46:41.728Z,5.47
2023-09-29T03:49:11.591Z,4.47
2023-09-29T03:51:39.944Z,4.47
2023-09-29T03:54:10.930Z,4.00
2023-09-29T03:56:38.147Z,4.07
2023-09-29T03:59:05.315Z,4.32
2023-09-29T04:01:33.598Z,5.03
2023-09-29T04:04:02.611Z,4.57
2023-09-29T04:06:30.467Z,5.15
2023-09-29T04:08:57.654Z,5.82
2023-09-29T04:11:25.079Z,4.15
2023-09-29T04:13:52.069Z,5.20
2023-09-29T04:16:19.837Z,4.55
2023-09-29T04:18:47.244Z,4.32
2023-09-29T04:21:19.783Z,4.38
2023-09-29T04:23:48.234Z,4.80
2023-09-29T04:26:27.110Z,4.85
2023-09-29T04:28:54.548Z,4.82
2023-09-29T04:31:21.702Z,5.70
2023-09-29T04:33:48.796Z,4.95
2023-09-29T04:36:15.872Z,4.90
2023-09-29T04:38:42.952Z,5.47
2023-09-29T04:41:10.339Z,4.40
2023-09-29T04:43:37.379Z,5.00
2023-09-29T04:46:04.480Z,6.13
2023-09-29T04:48:31.589Z,5.13
2023-09-29T04:50:59.457Z,5.47
2023-09-29T04:53:26.581Z,5.30
2023-09-29T04:55:53.730Z,4.30
2023-09-29T04:58:20.773Z,4.68
2023-09-29T05:00:48.251Z,4.30
2023-09-29T05:03:15.450Z,4.60
2023-09-29T05:05:42.549Z,5.70
2023-09-29T05:08:09.546Z,4.30
2023-09-29T05:10:36.616Z,4.90
2023-09-29T05:13:04.010Z,5.22
2023-09-29T05:15:31.211Z,4.25
2023-09-29T05:17:58.447Z,5.65
2023-09-29T05:20:25.459Z,5.05
2023-09-29T05:22:52.508Z,4.70
2023-09-29T05:25:19.531Z,4.85
2023-09-29T05:27:46.715Z,4.65
2023-09-29T05:30:14.053Z,5.07
2023-09-29T05:32:41.193Z,4.43
2023-09-29T05:35:09.188Z,4.70
2023-09-29T05:37:36.260Z,4.75
2023-09-29T05:40:04.420Z,4.93
2023-09-29T05:42:49.246Z,5.63
2023-09-29T05:45:18.875Z,4.55
2023-09-29T05:47:48.445Z,4.90
2023-09-29T05:50:19.442Z,4.63
2023-09-29T05:53:03.576Z,4.03
2023-09-29T05:55:35.963Z,4.93
2023-09-29T05:58:03.174Z,3.97
2023-09-29T06:00:31.271Z,4.13
2023-09-29T06:03:01.109Z,4.38
2023-09-29T06:05:28.701Z,4.35
2023-09-29T06:07:58.602Z,4.28
2023-09-29T06:10:26.967Z,4.10
2023-09-29T06:12:54.877Z,3.28
2023-09-29T06:15:21.901Z,3.75
2023-09-29T06:17:49.265Z,4.05
2023-09-29T06:20:16.900Z,3.85
2023-09-29T06:22:43.970Z,3.78
2023-09-29T06:25:11.170Z,3.83
2023-09-29T06:27:38.192Z,4.65
2023-09-29T06:30:05.893Z,5.10
2023-09-29T06:32:33.237Z,4.28
2023-09-29T06:35:00.389Z,3.97
2023-09-29T06:37:27.397Z,4.47
2023-09-29T06:39:54.394Z,3.70
2023-09-29T06:42:21.445Z,3.42
2023-09-29T06:44:48.807Z,3.72
2023-09-29T06:47:16.030Z,3.17
2023-09-29T06:49:43.151Z,3.25
2023-09-29T06:52:10.383Z,3.88
2023-09-29T06:54:37.450Z,3.50
2023-09-29T06:57:04.654Z,4.00
2023-09-29T06:59:31.756Z,3.42
2023-09-29T07:01:58.944Z,3.05
2023-09-29T07:04:26.125Z,3.45
2023-09-29T07:06:53.210Z,2.90
2023-09-29T07:09:20.363Z,3.03
2023-09-29T07:11:47.448Z,3.72
2023-09-29T07:14:14.467Z,3.03
2023-09-29T07:16:44.018Z,3.00
2023-09-29T07:19:13.654Z,3.30
2023-09-29T07:21:41.800Z,3.13
2023-09-29T07:24:09.671Z,3.55
2023-09-29T07:26:37.157Z,3.35
2023-09-29T07:29:06.007Z,3.60
2023-09-29T07:31:37.762Z,2.95
2023-09-29T07:34:04.979Z,3.55
2023-09-29T07:36:34.555Z,3.30
2023-09-29T07:39:02.161Z,3.03
2023-09-29T07:41:29.244Z,5.15
2023-09-29T07:43:56.412Z,3.80
2023-09-29T07:46:23.753Z,4.30
2023-09-29T07:48:51.002Z,3.95
2023-09-29T07:51:18.904Z,3.55
2023-09-29T07:53:46.134Z,2.58
2023-09-29T07:56:13.440Z,3.55
2023-09-29T07:58:40.482Z,3.42
2023-09-29T08:01:07.953Z,3.63
2023-09-29T08:03:35.544Z,3.38
2023-09-29T08:06:02.739Z,3.53
2023-09-29T08:08:30.049Z,4.05
2023-09-29T08:10:57.161Z,3.03
2023-09-29T08:13:25.616Z,2.58
2023-09-29T08:15:53.126Z,3.22
2023-09-29T08:18:20.259Z,2.97
2023-09-29T08:20:47.983Z,3.28
2023-09-29T08:23:15.106Z,3.20
2023-09-29T08:25:44.555Z,3.45
2023-09-29T08:28:11.608Z,2.63
2023-09-29T08:30:38.825Z,2.40
2023-09-29T08:33:18.889Z,3.28
2023-09-29T08:35:52.375Z,2.67
2023-09-29T08:38:20.680Z,2.72
2023-09-29T08:40:47.889Z,3.10
2023-09-29T08:43:16.688Z,2.75
2023-09-29T08:45:44.381Z,2.58
2023-09-29T08:48:13.672Z,3.08
2023-09-29T08:50:45.036Z,3.47
2023-09-29T08:53:12.520Z,3.47
2023-09-29T08:55:40.225Z,3.72
2023-09-29T08:58:08.843Z,3.20
2023-09-29T09:00:38.676Z,2.85
2023-09-29T09:03:06.591Z,2.80
2023-09-29T09:05:33.758Z,2.92
2023-09-29T09:08:02.877Z,2.53
2023-09-29T09:10:35.662Z,3.08
2023-09-29T09:13:06.851Z,3.05
2023-09-29T09:15:34.096Z,3.60
2023-09-29T09:18:01.689Z,2.88
2023-09-29T09:20:29.288Z,3.67
2023-09-29T09:23:02.442Z,3.20
2023-09-29T09:25:33.429Z,3.60
2023-09-29T09:28:00.440Z,3.22
2023-09-29T09:30:27.666Z,4.07
2023-09-29T09:32:55.025Z,3.05
2023-09-29T09:35:30.285Z,3.25
2023-09-29T09:37:58.708Z,3.80
2023-09-29T09:40:26.676Z,3.58
2023-09-29T09:43:04.494Z,4.35
2023-09-29T09:45:39.022Z,3.35
2023-09-29T09:48:10.110Z,3.92
2023-09-29T09:50:43.531Z,3.60
2023-09-29T09:53:15.873Z,3.03
2023-09-29T09:55:57.088Z,4.35
2023-09-29T09:58:24.957Z,4.40
2023-09-29T10:00:56.497Z,4.15
2023-09-29T10:03:26.525Z,4.57
2023-09-29T10:05:55.024Z,4.95
2023-09-29T10:08:33.689Z,4.68
2023-09-29T10:11:15.139Z,3.90
2023-09-29T10:13:46.538Z,4.45
2023-09-29T10:16:26.813Z,4.70
2023-09-29T10:18:59.739Z,4.35
2023-09-29T10:21:31.963Z,4.20
2023-09-29T10:24:02.152Z,4.18
2023-09-29T10:26:30.085Z,3.65
2023-09-29T10:29:10.786Z,4.22
2023-09-29T10:31:38.004Z,4.35
2023-09-29T10:34:05.159Z,3.83
2023-09-29T10:36:32.405Z,4.43
2023-09-29T10:39:00.743Z,3.97
2023-09-29T10:41:36.391Z,4.18
2023-09-29T10:44:05.914Z,4.20
2023-09-29T10:46:33.276Z,4.05
2023-09-29T10:49:00.610Z,3.92
2023-09-29T10:51:34.987Z,4.43
2023-09-29T10:54:09.743Z,6.00
2023-09-29T10:56:38.601Z,4.35
2023-09-29T10:59:10.304Z,4.63
2023-09-29T11:01:37.870Z,4.80
2023-09-29T11:04:10.186Z,4.22
2023-09-29T11:06:53.795Z,4.82
2023-09-29T11:09:23.062Z,5.22
2023-09-29T11:11:50.421Z,5.72
2023-09-29T11:14:18.381Z,4.90
2023-09-29T11:16:59.303Z,4.90
2023-09-29T11:19:31.894Z,4.53
2023-09-29T11:22:03.179Z,4.15
2023-09-29T11:24:44.734Z,4.93
2023-09-29T11:27:12.829Z,5.35
2023-09-29T11:29:40.946Z,5.07
2023-09-29T11:32:09.291Z,5.35
2023-09-29T11:34:36.345Z,4.97
2023-09-29T11:37:03.386Z,5.57
2023-09-29T11:39:31.401Z,5.43
2023-09-29T11:41:59.279Z,4.22
2023-09-29T11:44:27.347Z,6.10
2023-09-29T11:46:55.214Z,4.28
2023-09-29T11:49:22.225Z,5.03
2023-09-29T11:51:54.065Z,5.65
2023-09-29T11:54:21.217Z,5.25
2023-09-29T11:56:48.223Z,5.88
2023-09-29T11:59:15.384Z,5.50
2023-09-29T12:01:43.327Z,6.32
2023-09-29T12:04:10.517Z,6.25
2023-09-29T12:06:40.525Z,5.50
2023-09-29T12:09:07.568Z,7.03
2023-09-29T12:11:34.920Z,7.15
2023-09-29T12:14:05.420Z,5.53
2023-09-29T12:16:32.638Z,5.60
2023-09-29T12:18:59.645Z,6.80
2023-09-29T12:21:26.834Z,4.47
2023-09-29T12:23:54.487Z,4.88
2023-09-29T12:26:21.790Z,4.07
2023-09-29T12:28:52.292Z,4.80
2023-09-29T12:31:19.485Z,4.82
2023-09-29T12:33:47.175Z,5.43
2023-09-29T12:36:14.383Z,4.97
2023-09-29T12:38:41.441Z,5.25
2023-09-29T12:41:09.382Z,5.55
2023-09-29T12:43:36.865Z,4.82
2023-09-29T12:46:04.116Z,5.13
2023-09-29T12:48:31.798Z,4.53
2023-09-29T12:50:59.091Z,5.13
2023-09-29T12:53:26.118Z,5.00
2023-09-29T12:55:53.146Z,5.88
2023-09-29T12:58:20.184Z,5.32
2023-09-29T13:00:47.231Z,5.70
2023-09-29T13:03:14.280Z,6.32
2023-09-29T13:05:41.352Z,5.00
2023-09-29T13:08:08.499Z,5.35
2023-09-29T13:10:39.013Z,5.00
2023-09-29T13:13:07.077Z,4.78
2023-09-29T13:15:35.122Z,5.90
2023-09-29T13:18:02.365Z,4.95
2023-09-29T13:20:29.705Z,5.32
2023-09-29T13:22:57.220Z,4.95
2023-09-29T13:25:24.359Z,5.38
2023-09-29T13:27:51.913Z,5.22
2023-09-29T13:30:19.116Z,5.93
2023-09-29T13:32:46.617Z,5.80
2023-09-29T13:35:13.790Z,6.32
2023-09-29T13:37:42.368Z,6.95
2023-09-29T13:40:09.934Z,5.55
2023-09-29T13:42:37.741Z,5.55
2023-09-29T13:45:06.368Z,6.10
2023-09-29T13:47:34.300Z,5.72
2023-09-29T13:50:02.322Z,7.95
2023-09-29T13:52:29.773Z,7.07
2023-09-29T13:54:56.817Z,8.57
2023-09-29T13:57:25.076Z,7.90
2023-09-29T13:59:52.624Z,8.80
2023-09-29T14:02:19.748Z,8.38
2023-09-29T14:04:46.900Z,7.43
2023-09-29T14:07:14.039Z,7.28
2023-09-29T14:09:41.365Z,8.20
2023-09-29T14:12:12.012Z,9.32
2023-09-29T14:14:41.450Z,8.48
2023-09-29T14:17:08.551Z,8.35
2023-09-29T14:19:36.865Z,9.38
2023-09-29T14:22:04.311Z,9.15
2023-09-29T14:24:32.916Z,9.02
2023-09-29T14:27:00.648Z,11.98
2023-09-29T14:29:27.682Z,8.95
2023-09-29T14:31:55.013Z,8.70
2023-09-29T14:34:22.115Z,8.90
2023-09-29T14:36:49.228Z,8.40
2023-09-29T14:39:16.883Z,8.45
2023-09-29T14:41:45.414Z,8.55
2023-09-29T14:44:12.982Z,8.57
2023-09-29T14:46:39.963Z,9.60
2023-09-29T14:49:06.967Z,9.90
2023-09-29T14:51:33.960Z,8.70
2023-09-29T14:54:01.454Z,9.05
2023-09-29T14:56:28.519Z,9.25
2023-09-29T14:58:55.583Z,8.65
2023-09-29T15:01:23.472Z,9.05
2023-09-29T15:03:50.675Z,9.02
2023-09-29T15:06:18.213Z,9.13
2023-09-29T15:08:45.365Z,11.23
2023-09-29T15:11:18.810Z,7.22
2023-09-29T15:13:46.943Z,6.63
2023-09-29T15:16:17.616Z,7.15
2023-09-29T15:18:52.483Z,5.85
2023-09-29T15:21:20.527Z,5.50
2023-09-29T15:23:55.816Z,4.95
2023-09-29T15:26:23.868Z,4.78
2023-09-29T15:28:51.428Z,4.20
2023-09-29T15:31:19.021Z,5.28
2023-09-29T15:33:46.348Z,5.35
2023-09-29T15:36:13.834Z,4.88
2023-09-29T15:38:41.163Z,5.10
2023-09-29T15:41:11.642Z,4.97
2023-09-29T15:43:38.699Z,5.05
2023-09-29T15:46:11.658Z,4.38
2023-09-29T15:48:41.076Z,5.13
2023-09-29T15:51:08.983Z,5.53
2023-09-29T15:53:37.310Z,4.88
2023-09-29T15:56:05.789Z,4.82
2023-09-29T15:58:34.467Z,5.15
2023-09-29T16:01:02.900Z,5.03
2023-09-29T16:03:30.592Z,4.60
2023-09-29T16:06:02.329Z,5.65
2023-09-29T16:08:29.490Z,5.05
2023-09-29T16:11:02.343Z,5.30
2023-09-29T16:13:33.258Z,5.13
2023-09-29T16:16:01.734Z,5.45
2023-09-29T16:18:28.964Z,4.90
2023-09-29T16:20:56.116Z,5.63
2023-09-29T16:23:23.143Z,5.38
2023-09-29T16:25:52.436Z,4.75
2023-09-29T16:28:22.773Z,4.88
2023-09-29T16:30:51.993Z,5.47
2023-09-29T16:33:19.351Z,4.65
2023-09-29T16:35:46.484Z,4.72
2023-09-29T16:38:13.516Z,5.45
2023-09-29T16:40:40.988Z,5.60
2023-09-29T16:43:08.045Z,5.57
2023-09-29T16:45:35.450Z,5.43
2023-09-29T16:48:02.792Z,5.20
2023-09-29T16:50:29.954Z,5.20
2023-09-29T16:52:57.233Z,5.15
2023-09-29T16:55:24.577Z,5.53
2023-09-29T16:57:51.745Z,6.35
2023-09-29T17:00:19.407Z,5.85
2023-09-29T17:02:46.514Z,5.13
2023-09-29T17:05:13.599Z,5.72
2023-09-29T17:07:40.615Z,5.85
2023-09-29T17:10:08.369Z,5.47
2023-09-29T17:12:35.558Z,5.55
2023-09-29T17:15:03.728Z,6.00
2023-09-29T17:17:30.934Z,5.97
2023-09-29T17:19:57.993Z,6.22
2023-09-29T17:22:25.017Z,5.70
2023-09-29T17:24:52.056Z,6.38
2023-09-29T17:27:19.406Z,6.43
2023-09-29T17:29:47.865Z,6.45
2023-09-29T17:32:16.366Z,6.25
2023-09-29T17:34:43.975Z,6.50
2023-09-29T17:37:11.073Z,7.63
2023-09-29T17:39:38.266Z,6.80
2023-09-29T17:42:05.378Z,7.28
2023-09-29T17:44:32.444Z,8.05
2023-09-29T17:46:59.436Z,7.18
2023-09-29T17:49:27.264Z,6.80
2023-09-29T17:51:54.548Z,6.57
2023-09-29T17:54:21.594Z,7.25
2023-09-29T17:56:48.717Z,8.52
2023-09-29T17:59:16.344Z,7.25
2023-09-29T18:01:43.453Z,8.35
2023-09-29T18:04:10.896Z,7.05
2023-09-29T18:06:38.728Z,8.02
2023-09-29T18:09:06.730Z,8.77
2023-09-29T18:11:36.037Z,9.20
2023-09-29T18:14:03.399Z,8.80
2023-09-29T18:16:31.352Z,8.07
2023-09-29T18:18:58.617Z,7.82
2023-09-29T18:21:25.902Z,8.70
2023-09-29T18:23:52.920Z,9.00
2023-09-29T18:26:21.161Z,9.82
2023-09-29T18:28:48.732Z,10.05
2023-09-29T18:31:15.762Z,9.45
2023-09-29T18:33:42.988Z,9.90
2023-09-29T18:36:10.148Z,9.18
2023-09-29T18:38:37.218Z,9.48
2023-09-29T18:41:04.290Z,9.27
2023-09-29T18:43:31.383Z,11.02
2023-09-29T18:46:03.067Z,10.02
2023-09-29T18:48:30.413Z,10.45
2023-09-29T18:51:02.824Z,9.43
2023-09-29T18:53:29.908Z,9.45
2023-09-29T18:55:57.945Z,9.95
2023-09-29T18:58:25.512Z,8.88
2023-09-29T19:00:52.812Z,9.82
2023-09-29T19:03:19.937Z,9.68
2023-09-29T19:05:47.068Z,9.85
2023-09-29T19:08:14.896Z,10.15
2023-09-29T19:10:44.016Z,9.27
2023-09-29T19:13:11.140Z,10.20
2023-09-29T19:15:43.564Z,8.63
2023-09-29T19:18:10.819Z,8.07
2023-09-29T19:20:38.580Z,8.30
2023-09-29T19:23:05.880Z,7.00
2023-09-29T19:25:34.456Z,9.02
2023-09-29T19:28:01.928Z,7.75
2023-09-29T19:30:29.617Z,8.00
2023-09-29T19:32:57.872Z,6.43
2023-09-29T19:35:25.875Z,7.20
2023-09-29T19:37:53.660Z,7.88
2023-09-29T19:40:21.161Z,6.38
2023-09-29T19:42:49.586Z,6.95
2023-09-29T19:45:17.254Z,8.02
2023-09-29T19:47:44.417Z,7.68
2023-09-29T19:50:13.144Z,6.07
2023-09-29T19:52:40.385Z,6.38
2023-09-29T19:55:09.619Z,6.28
2023-09-29T19:57:37.953Z,6.72
2023-09-29T20:00:06.583Z,5.90
2023-09-29T20:02:39.461Z,6.90
2023-09-29T20:05:07.800Z,7.20
2023-09-29T20:07:34.836Z,7.18
2023-09-29T20:10:01.888Z,7.30
2023-09-29T20:12:29.083Z,6.60
2023-09-29T20:14:56.262Z,5.90
2023-09-29T20:17:23.995Z,7.20
2023-09-29T20:19:51.083Z,6.30
2023-09-29T20:22:18.086Z,5.60
2023-09-29T20:24:45.137Z,5.55
2023-09-29T20:27:12.155Z,6.88
2023-09-29T20:29:39.675Z,5.95
2023-09-29T20:32:07.209Z,5.88
2023-09-29T20:34:34.210Z,5.60
2023-09-29T20:37:01.498Z,5.13
2023-09-29T20:39:28.757Z,5.43
2023-09-29T20:41:56.982Z,5.18
2023-09-29T20:44:24.104Z,4.70
2023-09-29T20:46:51.099Z,5.07
2023-09-29T20:49:19.370Z,5.13
2023-09-29T20:51:48.210Z,4.97
2023-09-29T20:54:15.366Z,5.03
2023-09-29T20:56:43.335Z,5.03
2023-09-29T20:59:10.316Z,4.55
2023-09-29T21:01:37.660Z,5.10
2023-09-29T21:04:07.852Z,4.47
2023-09-29T21:06:36.721Z,4.68
2023-09-29T21:09:03.909Z,4.25
2023-09-29T21:11:34.099Z,4.00
2023-09-29T21:14:01.144Z,5.00
2023-09-29T21:16:28.469Z,4.28
2023-09-29T21:18:55.478Z,5.30
2023-09-29T21:21:22.565Z,4.57
2023-09-29T21:23:49.660Z,4.80
2023-09-29T21:26:16.752Z,5.05
2023-09-29T21:28:43.830Z,4.40
2023-09-29T21:31:16.072Z,4.90
2023-09-29T21:33:43.532Z,4.07
2023-09-29T21:36:15.127Z,4.55
2023-09-29T21:38:43.147Z,3.65
2023-09-29T21:41:10.687Z,4.38
2023-09-29T21:43:37.794Z,4.82
2023-09-29T21:46:04.836Z,4.70
2023-09-29T21:48:32.242Z,4.05
2023-09-29T21:50:59.782Z,4.22
2023-09-29T21:53:28.055Z,4.50
2023-09-29T21:55:55.923Z,4.15
2023-09-29T21:58:24.335Z,4.05
2023-09-29T22:00:53.596Z,4.05
2023-09-29T22:03:23.527Z,3.97
2023-09-29T22:05:53.845Z,4.22
2023-09-29T22:08:22.421Z,4.35
2023-09-29T22:10:50.759Z,3.38
2023-09-29T22:13:21.089Z,3.80
2023-09-29T22:15:51.938Z,4.28
2023-09-29T22:18:19.473Z,3.40
2023-09-29T22:20:47.517Z,4.13
2023-09-29T22:23:15.705Z,3.30
2023-09-29T22:25:43.214Z,4.13
2023-09-29T22:28:11.418Z,3.60
2023-09-29T22:30:38.875Z,3.67
2023-09-29T22:33:07.562Z,3.65
2023-09-29T22:35:37.170Z,3.85
2023-09-29T22:38:08.497Z,3.75
2023-09-29T22:40:35.692Z,4.97
2023-09-29T22:43:04.108Z,4.10
2023-09-29T22:45:31.522Z,5.78
2023-09-29T22:47:58.721Z,4.57
2023-09-29T22:50:27.668Z,4.85
2023-09-29T22:52:54.977Z,4.65
2023-09-29T22:55:24.223Z,5.53
2023-09-29T22:57:51.495Z,4.63
2023-09-29T23:00:18.709Z,4.43
2023-09-29T23:02:46.441Z,4.50
2023-09-29T23:05:13.795Z,4.00
2023-09-29T23:07:40.839Z,5.28
2023-09-29T23:10:12.309Z,3.85
2023-09-29T23:12:41.823Z,4.53
2023-09-29T23:15:10.089Z,4.93
2023-09-29T23:17:37.714Z,5.18
2023-09-29T23:20:11.473Z,4.35
2023-09-29T23:22:40.801Z,4.90
2023-09-29T23:25:12.613Z,6.07
2023-09-29T23:27:39.757Z,4.53
2023-09-29T23:30:10.247Z,4.70
2023-09-29T23:32:38.703Z,5.25
2023-09-29T23:35:06.038Z,4.95
2023-09-29T23:37:33.168Z,5.30
2023-09-29T23:40:00.948Z,5.00
2023-09-29T23:42:28.525Z,5.47
2023-09-29T23:44:55.555Z,6.32
2023-09-29T23:47:22.927Z,6.35
2023-09-29T23:49:49.906Z,6.22
2023-09-29T23:52:17.493Z,6.32
2023-09-29T23:54:44.987Z,5.95
2023-09-29T23:57:12.151Z,6.00
2023-09-29T23:59:39.208Z,6.43
